createdAt,value
2022-10-25T00:01:24.720Z,727.05
2022-10-25T00:03:56.541Z,727.03
2022-10-25T00:06:26.208Z,731.97
2022-10-25T00:08:55.729Z,733.83
2022-10-25T00:11:28.127Z,723.13
2022-10-25T00:14:00.042Z,710.63
2022-10-25T00:16:31.277Z,729.80
2022-10-25T00:19:00.676Z,731.13
2022-10-25T00:21:30.169Z,726.58
2022-10-25T00:24:00.911Z,730.22
2022-10-25T00:26:29.075Z,736.83
2022-10-25T00:28:57.658Z,741.25
2022-10-25T00:31:27.021Z,731.05
2022-10-25T00:33:55.162Z,741.92
2022-10-25T00:36:26.426Z,733.92
2022-10-25T00:38:57.153Z,736.38
2022-10-25T00:41:31.227Z,741.22
2022-10-25T00:44:58.853Z,731.63
2022-10-25T00:47:49.247Z,719.33
2022-10-25T00:50:30.533Z,721.72
2022-10-25T00:53:06.889Z,720.95
2022-10-25T00:55:35.749Z,734.75
2022-10-25T00:58:12.127Z,722.13
2022-10-25T01:00:42.002Z,730.65
2022-10-25T01:03:13.022Z,718.42
2022-10-25T01:05:41.466Z,718.60
2022-10-25T01:08:13.238Z,714.47
2022-10-25T01:10:41.801Z,708.50
2022-10-25T01:13:11.560Z,704.80
2022-10-25T01:15:54.101Z,703.08
2022-10-25T01:18:32.906Z,714.13
2022-10-25T01:21:44.838Z,713.67
2022-10-25T01:25:03.920Z,707.28
2022-10-25T01:28:10.391Z,722.88
2022-10-25T01:31:26.128Z,714.42
2022-10-25T01:34:00.392Z,722.40
2022-10-25T01:36:43.735Z,716.38
2022-10-25T01:39:19.772Z,711.30
2022-10-25T01:42:06.019Z,727.05
2022-10-25T01:44:46.684Z,730.55
2022-10-25T01:47:22.127Z,699.10
2022-10-25T01:49:58.249Z,701.83
2022-10-25T01:52:27.333Z,725.25
2022-10-25T01:54:57.965Z,725.47
2022-10-25T01:57:59.111Z,724.80
2022-10-25T02:00:28.227Z,731.33
2022-10-25T02:03:11.635Z,735.25
2022-10-25T02:05:55.680Z,752.58
2022-10-25T02:08:37.177Z,760.63
2022-10-25T02:11:16.420Z,752.30
2022-10-25T02:14:00.095Z,751.78
2022-10-25T02:16:33.226Z,755.97
2022-10-25T02:19:06.940Z,754.97
2022-10-25T02:21:37.987Z,748.72
2022-10-25T02:24:15.707Z,742.35
2022-10-25T02:29:26.241Z,747.13
2022-10-25T02:31:55.928Z,734.15
2022-10-25T02:34:26.728Z,715.88
2022-10-25T02:36:55.385Z,744.97
2022-10-25T02:39:29.173Z,752.88
2022-10-25T02:42:02.317Z,734.13
2022-10-25T02:44:31.804Z,728.05
2022-10-25T02:47:01.458Z,723.53
2022-10-25T02:49:32.366Z,759.45
2022-10-25T02:54:29.636Z,751.80
2022-10-25T02:56:57.891Z,754.47
2022-10-25T02:59:26.112Z,757.00
2022-10-25T03:01:54.487Z,751.42
2022-10-25T03:04:25.288Z,747.50
2022-10-25T03:06:57.481Z,740.42
2022-10-25T03:09:27.304Z,713.80
2022-10-25T03:11:57.006Z,775.35
2022-10-25T03:14:25.512Z,756.45
2022-10-25T03:16:54.801Z,747.80
2022-10-25T03:19:23.541Z,740.28
2022-10-25T03:21:52.889Z,747.22
2022-10-25T03:24:23.659Z,731.80
2022-10-25T03:26:52.996Z,751.30
2022-10-25T03:29:23.590Z,738.90
2022-10-25T03:31:52.897Z,740.78
2022-10-25T03:34:21.384Z,736.95
2022-10-25T03:36:52.199Z,748.05
2022-10-25T03:39:21.707Z,749.25
2022-10-25T03:41:50.436Z,777.13
2022-10-25T03:44:18.683Z,766.17
2022-10-25T03:46:46.807Z,780.20
2022-10-25T03:49:17.368Z,773.00
2022-10-25T03:51:45.726Z,768.20
2022-10-25T03:54:15.095Z,768.88
2022-10-25T03:56:44.599Z,758.88
2022-10-25T03:59:15.136Z,765.95
2022-10-25T04:01:44.609Z,783.88
2022-10-25T04:04:15.271Z,775.97
2022-10-25T04:06:43.385Z,777.30
2022-10-25T04:09:13.120Z,782.13
2022-10-25T04:11:43.854Z,751.80
2022-10-25T04:14:14.781Z,760.88
2022-10-25T04:16:43.265Z,784.47
2022-10-25T04:19:12.595Z,763.58
2022-10-25T04:21:41.118Z,756.67
2022-10-25T04:24:11.812Z,754.92
2022-10-25T04:26:40.197Z,772.15
2022-10-25T04:29:13.467Z,776.53
2022-10-25T04:34:11.951Z,774.97
2022-10-25T04:36:41.341Z,794.15
2022-10-25T04:39:12.146Z,790.17
2022-10-25T04:41:40.416Z,786.45
2022-10-25T04:44:11.530Z,766.00
2022-10-25T04:46:43.977Z,764.03
2022-10-25T04:49:16.030Z,777.10
2022-10-25T04:51:45.482Z,774.30
2022-10-25T04:54:15.264Z,775.95
2022-10-25T04:56:44.656Z,765.20
2022-10-25T04:59:15.619Z,742.95
2022-10-25T05:01:43.860Z,750.90
2022-10-25T05:04:13.933Z,758.67
2022-10-25T05:06:42.058Z,750.40
2022-10-25T05:09:11.765Z,758.05
2022-10-25T05:11:41.411Z,744.75
2022-10-25T05:14:10.788Z,743.28
2022-10-25T05:16:41.491Z,742.40
2022-10-25T05:19:10.138Z,759.40
2022-10-25T05:21:39.975Z,792.45
2022-10-25T05:24:08.398Z,797.80
2022-10-25T05:26:38.509Z,811.17
2022-10-25T05:29:10.155Z,822.78
2022-10-25T05:31:41.002Z,808.90
2022-10-25T05:34:12.256Z,810.53
2022-10-25T05:36:40.399Z,818.15
2022-10-25T05:39:09.762Z,803.65
2022-10-25T05:41:40.363Z,812.15
2022-10-25T05:44:10.224Z,809.33
2022-10-25T05:46:38.548Z,800.75
2022-10-25T05:49:08.010Z,806.95
2022-10-25T05:51:39.410Z,798.28
2022-10-25T05:54:11.656Z,795.35
2022-10-25T05:56:40.956Z,792.25
2022-10-25T05:59:13.662Z,787.75
2022-10-25T06:01:45.528Z,770.92
2022-10-25T06:04:15.985Z,790.63
2022-10-25T06:06:48.409Z,778.92
2022-10-25T06:09:20.377Z,767.67
2022-10-25T06:11:48.485Z,806.45
2022-10-25T06:14:17.849Z,825.13
2022-10-25T06:16:47.595Z,819.40
2022-10-25T06:19:17.327Z,824.92
2022-10-25T06:21:48.048Z,813.55
2022-10-25T06:24:17.495Z,816.05
2022-10-25T06:26:46.858Z,801.67
2022-10-25T06:29:17.432Z,832.05
2022-10-25T06:31:47.116Z,823.38
2022-10-25T06:34:16.962Z,833.05
2022-10-25T06:36:46.888Z,789.53
2022-10-25T06:39:16.456Z,821.50
2022-10-25T06:41:45.804Z,796.80
2022-10-25T06:44:15.174Z,820.83
2022-10-25T06:47:15.472Z,779.50
2022-10-25T06:49:34.216Z,775.63
2022-10-25T06:52:03.835Z,783.17
2022-10-25T06:54:31.979Z,789.05
2022-10-25T06:57:01.303Z,790.00
2022-10-25T06:59:32.290Z,800.33
2022-10-25T07:02:00.963Z,802.03
2022-10-25T07:04:33.627Z,787.00
2022-10-25T07:07:04.452Z,806.22
2022-10-25T07:09:34.218Z,797.40
2022-10-25T07:12:02.358Z,760.38
2022-10-25T07:14:32.941Z,749.72
2022-10-25T07:17:02.325Z,786.03
2022-10-25T07:19:31.761Z,771.10
2022-10-25T07:22:01.132Z,784.63
2022-10-25T07:24:32.418Z,808.53
2022-10-25T07:27:01.764Z,791.75
2022-10-25T07:29:29.946Z,796.58
2022-10-25T07:31:59.682Z,819.85
2022-10-25T07:34:29.189Z,850.55
2022-10-25T07:36:57.722Z,836.75
2022-10-25T07:39:27.220Z,841.10
2022-10-25T07:41:58.024Z,841.15
2022-10-25T07:44:28.606Z,854.70
2022-10-25T07:46:56.750Z,851.20
2022-10-25T07:49:27.379Z,869.90
2022-10-25T07:51:56.737Z,872.67
2022-10-25T07:54:27.393Z,862.50
2022-10-25T07:56:58.139Z,843.80
2022-10-25T07:59:27.901Z,832.72
2022-10-25T08:01:57.239Z,829.38
2022-10-25T08:07:03.839Z,810.47
2022-10-25T08:09:38.208Z,823.38
2022-10-25T08:12:09.669Z,837.40
2022-10-25T08:14:41.464Z,879.53
2022-10-25T08:17:12.833Z,846.03
2022-10-25T08:19:46.426Z,812.13
2022-10-25T08:22:19.812Z,795.83
2022-10-25T08:24:50.466Z,810.55
2022-10-25T08:27:21.145Z,826.88
2022-10-25T08:29:50.511Z,823.83
2022-10-25T08:32:19.987Z,821.67
2022-10-25T08:34:50.604Z,801.83
2022-10-25T08:37:18.765Z,819.65
2022-10-25T08:39:52.141Z,806.63
2022-10-25T08:42:37.143Z,815.03
2022-10-25T08:45:17.376Z,814.08
2022-10-25T08:47:51.112Z,833.75
2022-10-25T08:50:25.548Z,851.75
2022-10-25T08:52:58.967Z,903.67
2022-10-25T08:55:38.879Z,894.38
2022-10-25T08:58:16.657Z,895.80
2022-10-25T09:00:50.069Z,860.67
2022-10-25T09:03:25.157Z,816.38
2022-10-25T09:06:11.779Z,806.85
2022-10-25T09:09:06.967Z,817.40
2022-10-25T09:11:53.689Z,827.28
2022-10-25T09:14:35.039Z,861.67
2022-10-25T09:17:17.416Z,858.22
2022-10-25T09:20:04.539Z,798.72
2022-10-25T09:22:45.270Z,783.25
2022-10-25T09:25:25.338Z,837.10
2022-10-25T09:28:01.188Z,826.22
2022-10-25T09:30:39.112Z,838.00
2022-10-25T09:33:13.312Z,834.55
2022-10-25T09:35:49.650Z,832.42
2022-10-25T09:38:24.292Z,818.10
2022-10-25T09:41:02.131Z,814.53
2022-10-25T09:43:40.629Z,826.13
2022-10-25T09:46:19.050Z,818.90
2022-10-25T09:48:58.258Z,837.58
2022-10-25T09:51:37.213Z,828.72
2022-10-25T09:54:18.010Z,840.15
2022-10-25T09:56:47.343Z,834.28
2022-10-25T09:59:17.628Z,837.55
2022-10-25T10:01:48.592Z,858.13
2022-10-25T10:04:27.707Z,874.63
2022-10-25T10:07:02.771Z,855.50
2022-10-25T10:09:33.514Z,836.30
2022-10-25T10:14:40.565Z,794.03
2022-10-25T10:17:18.866Z,778.58
2022-10-25T10:20:13.895Z,797.75
2022-10-25T10:22:52.348Z,721.08
2022-10-25T10:25:26.626Z,784.72
2022-10-25T10:27:58.607Z,785.90
2022-10-25T10:30:29.823Z,754.80
2022-10-25T10:33:02.672Z,773.55
2022-10-25T10:35:35.612Z,785.40
2022-10-25T10:38:27.362Z,741.22
2022-10-25T10:41:15.457Z,723.08
2022-10-25T10:43:46.037Z,732.35
2022-10-25T10:46:19.886Z,728.92
2022-10-25T10:48:57.018Z,689.08
2022-10-25T10:51:44.077Z,685.17
2022-10-25T10:54:26.629Z,672.70
2022-10-25T10:56:59.071Z,669.35
2022-10-25T10:59:39.084Z,688.42
2022-10-25T11:02:25.791Z,737.42
2022-10-25T11:04:58.005Z,738.20
2022-10-25T11:07:32.508Z,691.17
2022-10-25T11:10:22.103Z,744.92
2022-10-25T11:13:10.999Z,777.30
2022-10-25T11:16:27.230Z,794.78
2022-10-25T11:19:29.265Z,775.38
2022-10-25T11:28:07.134Z,730.17
2022-10-25T11:30:43.543Z,750.88
2022-10-25T11:33:44.210Z,747.00
2022-10-25T11:36:32.293Z,766.38
2022-10-25T11:39:17.009Z,753.22
2022-10-25T11:41:49.195Z,772.95
2022-10-25T11:44:45.801Z,810.83
2022-10-25T11:47:27.241Z,826.83
2022-10-25T11:50:06.677Z,819.45
2022-10-25T11:53:03.653Z,826.03
2022-10-25T11:55:41.168Z,825.45
2022-10-25T11:58:27.399Z,807.72
2022-10-25T12:01:07.979Z,825.05
2022-10-25T12:03:56.724Z,880.45
2022-10-25T12:06:33.810Z,892.10
2022-10-25T12:09:10.744Z,900.67
2022-10-25T12:11:47.441Z,941.75
2022-10-25T12:14:24.208Z,995.13
2022-10-25T12:16:53.107Z,875.42
2022-10-25T12:19:29.431Z,914.53
2022-10-25T12:22:02.367Z,907.42
2022-10-25T12:24:37.772Z,933.10
2022-10-25T12:27:10.105Z,943.35
2022-10-25T12:29:44.834Z,947.28
2022-10-25T12:32:20.182Z,955.72
2022-10-25T12:34:54.011Z,947.10
2022-10-25T12:37:31.427Z,930.42
2022-10-25T12:40:02.621Z,955.50
2022-10-25T12:42:39.621Z,985.85
2022-10-25T12:45:59.000Z,1001.92
2022-10-25T12:49:15.526Z,995.90
2022-10-25T12:52:10.364Z,988.80
2022-10-25T12:55:15.763Z,997.13
2022-10-25T12:58:00.201Z,979.88
2022-10-25T13:00:37.101Z,942.17
2022-10-25T13:03:50.664Z,974.97
2022-10-25T13:06:36.780Z,1000.10
2022-10-25T13:09:10.959Z,1012.20
2022-10-25T13:11:43.606Z,1039.53
2022-10-25T13:14:28.004Z,1061.45
2022-10-25T13:17:45.683Z,1029.15
2022-10-25T13:20:50.165Z,1021.75
2022-10-25T13:23:59.910Z,1074.55
2022-10-25T13:27:20.891Z,1060.53
2022-10-25T13:30:32.644Z,1013.00
2022-10-25T13:33:34.655Z,956.92
2022-10-25T13:36:05.791Z,993.00
2022-10-25T13:38:39.897Z,1014.53
2022-10-25T13:41:17.415Z,1003.30
2022-10-25T13:44:01.793Z,978.53
2022-10-25T13:46:38.706Z,983.47
2022-10-25T13:49:35.203Z,1009.40
2022-10-25T13:52:09.143Z,968.13
2022-10-25T13:54:50.595Z,1016.42
2022-10-25T13:57:48.598Z,1014.15
2022-10-25T14:00:52.849Z,989.08
2022-10-25T14:03:35.857Z,937.60
2022-10-25T14:06:18.310Z,936.17
2022-10-25T14:09:11.264Z,1008.78
2022-10-25T14:11:48.487Z,928.97
2022-10-25T14:14:29.612Z,938.92
2022-10-25T14:17:15.581Z,970.67
2022-10-25T14:19:50.508Z,944.55
2022-10-25T14:22:32.914Z,948.40
2022-10-25T14:25:09.723Z,911.42
2022-10-25T14:27:38.748Z,948.13
2022-10-25T14:30:25.921Z,934.70
2022-10-25T14:32:59.725Z,919.72
2022-10-25T14:35:35.711Z,899.33
2022-10-25T14:38:16.574Z,886.20
2022-10-25T14:40:54.517Z,902.80
2022-10-25T14:43:30.189Z,925.17
2022-10-25T14:46:03.394Z,935.63
2022-10-25T14:48:33.997Z,936.63
2022-10-25T14:51:08.591Z,912.92
2022-10-25T14:53:47.805Z,926.80
2022-10-25T14:56:23.716Z,938.13
2022-10-25T14:58:53.826Z,945.45
2022-10-25T15:01:24.329Z,960.97
2022-10-25T15:03:57.103Z,967.70
2022-10-25T15:06:30.020Z,983.92
2022-10-25T15:09:30.086Z,1021.08
2022-10-25T15:12:16.878Z,974.10
2022-10-25T15:14:48.255Z,1027.05
2022-10-25T15:17:26.015Z,1021.78
2022-10-25T15:20:09.310Z,1005.65
2022-10-25T15:22:51.114Z,1017.67
2022-10-25T15:25:32.576Z,972.65
2022-10-25T15:28:12.020Z,953.67
2022-10-25T15:30:46.250Z,962.53
2022-10-25T15:33:18.868Z,932.88
2022-10-25T15:35:51.996Z,957.17
2022-10-25T15:38:21.539Z,938.42
2022-10-25T15:40:52.365Z,934.75
2022-10-25T15:43:20.640Z,936.28
2022-10-25T15:45:51.406Z,941.25
2022-10-25T15:48:24.731Z,927.97
2022-10-25T15:50:55.698Z,932.17
2022-10-25T15:53:26.632Z,924.00
2022-10-25T15:55:57.158Z,903.67
2022-10-25T15:58:25.731Z,909.22
2022-10-25T16:00:57.822Z,892.33
2022-10-25T16:05:56.705Z,880.33
2022-10-25T16:08:26.364Z,872.90
2022-10-25T16:10:56.214Z,882.78
2022-10-25T16:13:30.699Z,883.30
2022-10-25T16:16:04.699Z,882.80
2022-10-25T16:18:36.228Z,878.83
2022-10-25T16:21:06.033Z,885.25
2022-10-25T16:23:36.741Z,895.85
2022-10-25T16:26:06.613Z,892.55
2022-10-25T16:28:36.315Z,911.45
2022-10-25T16:31:05.761Z,920.80
2022-10-25T16:33:34.283Z,905.33
2022-10-25T16:36:03.705Z,892.28
2022-10-25T16:38:31.862Z,902.38
2022-10-25T16:41:02.582Z,914.85
2022-10-25T16:43:30.751Z,908.30
2022-10-25T16:46:01.698Z,918.40
2022-10-25T16:48:31.123Z,952.28
2022-10-25T16:51:00.452Z,953.05
2022-10-25T16:53:29.741Z,930.22
2022-10-25T16:56:00.923Z,921.55
2022-10-25T16:58:30.245Z,917.53
2022-10-25T17:01:00.818Z,906.38
2022-10-25T17:03:28.986Z,899.92
2022-10-25T17:06:00.340Z,901.45
2022-10-25T17:08:28.734Z,889.45
2022-10-25T17:10:58.559Z,903.22
2022-10-25T17:13:28.077Z,910.60
2022-10-25T17:15:57.589Z,911.67
2022-10-25T17:18:27.028Z,937.38
2022-10-25T17:20:58.360Z,906.85
2022-10-25T17:23:26.744Z,937.47
2022-10-25T17:26:00.226Z,906.58
2022-10-25T17:28:32.387Z,908.90
2022-10-25T17:31:00.673Z,893.95
2022-10-25T17:33:30.012Z,903.53
2022-10-25T17:35:59.376Z,895.53
2022-10-25T17:38:27.847Z,919.58
2022-10-25T17:40:57.585Z,932.85
2022-10-25T17:43:25.682Z,923.03
2022-10-25T17:46:02.116Z,927.88
2022-10-25T17:48:30.960Z,916.10
2022-10-25T17:51:04.240Z,927.10
2022-10-25T17:53:32.761Z,910.25
2022-10-25T17:56:13.569Z,917.60
2022-10-25T17:58:44.545Z,915.42
2022-10-25T18:01:19.129Z,947.05
2022-10-25T18:03:47.813Z,929.58
2022-10-25T18:06:19.772Z,928.08
2022-10-25T18:08:52.687Z,932.03
2022-10-25T18:11:24.612Z,955.38
2022-10-25T18:13:56.696Z,930.85
2022-10-25T18:19:01.311Z,889.03
2022-10-25T18:21:31.795Z,894.63
2022-10-25T18:24:03.582Z,888.63
2022-10-25T18:26:34.173Z,914.45
2022-10-25T18:29:02.449Z,941.55
2022-10-25T18:31:33.563Z,944.95
2022-10-25T18:34:04.763Z,945.53
2022-10-25T18:36:35.496Z,915.27
2022-10-25T18:39:04.688Z,925.38
2022-10-25T18:41:35.561Z,907.90
2022-10-25T18:44:05.355Z,930.40
2022-10-25T18:46:37.438Z,908.40
2022-10-25T18:51:37.205Z,885.22
2022-10-25T18:54:05.461Z,895.58
2022-10-25T18:56:34.842Z,917.33
2022-10-25T18:59:02.983Z,911.35
2022-10-25T19:01:33.436Z,868.42
2022-10-25T19:04:05.418Z,871.97
2022-10-25T19:06:34.773Z,862.75
2022-10-25T19:09:04.596Z,907.92
2022-10-25T19:11:36.377Z,873.58
2022-10-25T19:14:06.864Z,870.55
2022-10-25T19:16:37.402Z,885.47
2022-10-25T19:19:08.282Z,851.63
2022-10-25T19:21:39.035Z,854.08
2022-10-25T19:24:11.814Z,855.13
2022-10-25T19:26:41.171Z,852.55
2022-10-25T19:29:10.992Z,841.33
2022-10-25T19:31:40.425Z,842.53
2022-10-25T19:34:09.973Z,837.10
2022-10-25T19:36:40.567Z,836.47
2022-10-25T19:39:09.933Z,827.03
2022-10-25T19:41:38.142Z,829.63
2022-10-25T19:44:06.943Z,825.72
2022-10-25T19:46:36.710Z,805.92
2022-10-25T19:49:04.848Z,805.28
2022-10-25T19:51:36.770Z,811.15
2022-10-25T19:54:05.261Z,827.35
2022-10-25T19:56:36.593Z,818.20
2022-10-25T19:59:06.419Z,812.60
2022-10-25T20:01:37.121Z,816.17
2022-10-25T20:04:06.783Z,819.58
2022-10-25T20:06:36.847Z,798.70
2022-10-25T20:09:06.946Z,788.83
2022-10-25T20:11:36.844Z,798.38
2022-10-25T20:14:06.253Z,788.45
2022-10-25T20:16:37.344Z,807.28
2022-10-25T20:19:07.109Z,812.72
2022-10-25T20:21:39.216Z,812.25
2022-10-25T20:24:11.471Z,809.55
2022-10-25T20:26:44.632Z,823.67
2022-10-25T20:29:20.340Z,789.95
2022-10-25T20:31:51.954Z,807.67
2022-10-25T20:34:21.286Z,820.70
2022-10-25T20:36:52.067Z,829.47
2022-10-25T20:39:21.530Z,852.40
2022-10-25T20:41:51.477Z,839.83
2022-10-25T20:44:19.963Z,829.63
2022-10-25T20:46:50.370Z,842.55
2022-10-25T20:49:19.717Z,823.45
2022-10-25T20:51:49.020Z,819.55
2022-10-25T20:54:18.541Z,867.95
2022-10-25T20:56:47.886Z,824.35
2022-10-25T20:59:18.588Z,822.55
2022-10-25T21:01:48.331Z,821.20
2022-10-25T21:04:25.821Z,827.03
2022-10-25T21:06:58.655Z,813.08
2022-10-25T21:09:30.905Z,818.25
2022-10-25T21:12:00.529Z,834.03
2022-10-25T21:14:29.942Z,858.88
2022-10-25T21:16:59.334Z,838.15
2022-10-25T21:19:29.937Z,846.38
2022-10-25T21:22:00.542Z,850.03
2022-10-25T21:24:32.497Z,852.80
2022-10-25T21:27:01.884Z,840.60
2022-10-25T21:29:32.769Z,847.30
2022-10-25T21:32:02.466Z,848.63
2022-10-25T21:34:33.007Z,820.05
2022-10-25T21:37:02.887Z,805.20
2022-10-25T21:39:35.156Z,815.47
2022-10-25T21:42:04.563Z,814.67
2022-10-25T21:44:33.175Z,824.67
2022-10-25T21:47:02.566Z,826.13
2022-10-25T21:49:30.760Z,837.10
2022-10-25T21:52:00.099Z,833.47
2022-10-25T21:54:29.596Z,831.83
2022-10-25T21:57:00.284Z,808.80
2022-10-25T21:59:30.817Z,834.85
2022-10-25T22:02:00.889Z,854.65
2022-10-25T22:04:31.471Z,849.15
2022-10-25T22:07:00.791Z,840.50
2022-10-25T22:09:30.123Z,874.25
2022-10-25T22:12:00.869Z,873.58
2022-10-25T22:14:30.379Z,885.38
2022-10-25T22:16:59.694Z,913.85
2022-10-25T22:19:29.275Z,881.65
2022-10-25T22:21:57.372Z,850.30
2022-10-25T22:24:28.065Z,882.65
2022-10-25T22:26:56.707Z,860.17
2022-10-25T22:29:28.655Z,814.80
2022-10-25T22:31:56.827Z,806.63
2022-10-25T22:34:24.990Z,815.58
2022-10-25T22:36:53.119Z,820.22
2022-10-25T22:39:21.847Z,848.80
2022-10-25T22:41:53.574Z,798.83
2022-10-25T22:44:24.148Z,819.15
2022-10-25T22:46:54.376Z,816.15
2022-10-25T22:49:25.260Z,774.05
2022-10-25T22:51:53.763Z,776.53
2022-10-25T22:54:24.322Z,768.45
2022-10-25T22:56:53.678Z,764.60
2022-10-25T22:59:22.364Z,768.33
2022-10-25T23:01:53.929Z,755.30
2022-10-25T23:04:24.556Z,844.38
2022-10-25T23:06:53.140Z,837.83
2022-10-25T23:09:21.350Z,790.03
2022-10-25T23:11:49.968Z,781.90
2022-10-25T23:14:20.831Z,768.75
2022-10-25T23:16:50.146Z,766.67
2022-10-25T23:19:20.855Z,784.97
2022-10-25T23:21:50.233Z,784.22
2022-10-25T23:24:21.091Z,787.45
2022-10-25T23:26:50.416Z,790.05
2022-10-25T23:29:18.728Z,786.58
2022-10-25T23:31:48.061Z,796.60
2022-10-25T23:34:16.269Z,808.92
2022-10-25T23:36:48.574Z,823.28
2022-10-25T23:39:16.744Z,796.72
2022-10-25T23:41:44.861Z,784.22
2022-10-25T23:44:14.184Z,789.15
2022-10-25T23:46:44.086Z,788.03
2022-10-25T23:49:12.626Z,781.90
2022-10-25T23:51:41.166Z,784.53
2022-10-25T23:54:10.669Z,782.92
2022-10-25T23:56:38.975Z,788.72
2022-10-25T23:59:07.104Z,773.45
